sensor_id;sensor_type;location;lat;lon;timestamp;P1;durP1;ratioP1;P2;durP2;ratioP2
62479;SDS011;48526;48.846;2.322;2023-04-01T00:01:22;0.00;;;0.00;;
62479;SDS011;48526;48.846;2.322;2023-04-01T00:03:47;1.00;;;1.00;;
62479;SDS011;48526;48.846;2.322;2023-04-01T00:06:13;0.00;;;0.00;;
62479;SDS011;48526;48.846;2.322;2023-04-01T00:08:40;0.00;;;0.00;;
62479;SDS011;48526;48.846;2.322;2023-04-01T00:11:05;1.00;;;1.00;;
62479;SDS011;48526;48.846;2.322;2023-04-01T00:13:31;1.25;;;0.50;;
62479;SDS011;48526;48.846;2.322;2023-04-01T00:15:56;1.50;;;0.50;;
62479;SDS011;48526;48.846;2.322;2023-04-01T00:18:21;0.00;;;0.00;;
62479;SDS011;48526;48.846;2.322;2023-04-01T00:20:47;0.00;;;0.00;;
62479;SDS011;48526;48.846;2.322;2023-04-01T00:23:14;0.00;;;0.00;;
62479;SDS011;48526;48.846;2.322;2023-04-01T00:25:41;0.00;;;0.00;;
62479;SDS011;48526;48.846;2.322;2023-04-01T00:28:06;0.00;;;0.00;;
62479;SDS011;48526;48.846;2.322;2023-04-01T00:30:32;0.25;;;0.00;;
62479;SDS011;48526;48.846;2.322;2023-04-01T00:32:57;0.00;;;0.00;;
62479;SDS011;48526;48.846;2.322;2023-04-01T00:35:22;1.00;;;1.00;;
62479;SDS011;48526;48.846;2.322;2023-04-01T00:37:48;1.00;;;0.00;;
62479;SDS011;48526;48.846;2.322;2023-04-01T00:40:47;0.25;;;0.00;;
62479;SDS011;48526;48.846;2.322;2023-04-01T00:43:10;1.00;;;1.00;;
62479;SDS011;48526;48.846;2.322;2023-04-01T00:45:39;0.00;;;0.00;;
62479;SDS011;48526;48.846;2.322;2023-04-01T00:48:27;3.75;;;1.00;;
62479;SDS011;48526;48.846;2.322;2023-04-01T00:51:06;0.00;;;0.00;;
62479;SDS011;48526;48.846;2.322;2023-04-01T00:53:34;0.00;;;0.00;;
62479;SDS011;48526;48.846;2.322;2023-04-01T00:56:04;0.75;;;0.75;;
62479;SDS011;48526;48.846;2.322;2023-04-01T00:58:33;0.00;;;0.00;;
62479;SDS011;48526;48.846;2.322;2023-04-01T01:01:00;1.25;;;0.00;;
62479;SDS011;48526;48.846;2.322;2023-04-01T01:03:26;0.75;;;0.00;;
62479;SDS011;48526;48.846;2.322;2023-04-01T01:08:48;0.00;;;0.00;;
62479;SDS011;48526;48.846;2.322;2023-04-01T01:11:18;0.00;;;0.00;;
62479;SDS011;48526;48.846;2.322;2023-04-01T01:14:09;0.00;;;0.00;;
62479;SDS011;48526;48.846;2.322;2023-04-01T01:16:43;1.50;;;0.00;;
62479;SDS011;48526;48.846;2.322;2023-04-01T01:22:03;0.00;;;0.00;;
62479;SDS011;48526;48.846;2.322;2023-04-01T01:27:22;0.00;;;0.00;;
62479;SDS011;48526;48.846;2.322;2023-04-01T01:29:52;1.00;;;1.00;;
62479;SDS011;48526;48.846;2.322;2023-04-01T01:35:16;1.00;;;0.50;;
62479;SDS011;48526;48.846;2.322;2023-04-01T01:37:47;0.00;;;0.00;;
62479;SDS011;48526;48.846;2.322;2023-04-01T01:40:15;1.00;;;0.00;;
62479;SDS011;48526;48.846;2.322;2023-04-01T01:42:43;0.75;;;0.00;;
62479;SDS011;48526;48.846;2.322;2023-04-01T01:45:12;0.00;;;0.00;;
62479;SDS011;48526;48.846;2.322;2023-04-01T01:47:39;2.00;;;0.00;;
62479;SDS011;48526;48.846;2.322;2023-04-01T01:50:05;0.00;;;0.00;;
62479;SDS011;48526;48.846;2.322;2023-04-01T01:52:32;0.75;;;0.00;;
62479;SDS011;48526;48.846;2.322;2023-04-01T01:54:58;0.50;;;0.00;;
62479;SDS011;48526;48.846;2.322;2023-04-01T01:57:25;3.00;;;0.00;;
62479;SDS011;48526;48.846;2.322;2023-04-01T01:59:54;0.00;;;0.00;;
62479;SDS011;48526;48.846;2.322;2023-04-01T02:02:22;1.00;;;0.00;;
62479;SDS011;48526;48.846;2.322;2023-04-01T02:04:48;1.00;;;0.00;;
62479;SDS011;48526;48.846;2.322;2023-04-01T02:07:24;0.00;;;0.00;;
62479;SDS011;48526;48.846;2.322;2023-04-01T02:09:52;0.00;;;0.00;;
62479;SDS011;48526;48.846;2.322;2023-04-01T02:12:18;1.50;;;0.25;;
62479;SDS011;48526;48.846;2.322;2023-04-01T02:17:38;1.00;;;1.00;;
62479;SDS011;48526;48.846;2.322;2023-04-01T02:20:06;3.75;;;0.75;;
62479;SDS011;48526;48.846;2.322;2023-04-01T02:22:35;1.00;;;0.00;;
62479;SDS011;48526;48.846;2.322;2023-04-01T02:25:14;1.00;;;0.00;;
62479;SDS011;48526;48.846;2.322;2023-04-01T02:27:43;0.00;;;0.00;;
62479;SDS011;48526;48.846;2.322;2023-04-01T02:30:10;0.00;;;0.00;;
62479;SDS011;48526;48.846;2.322;2023-04-01T02:32:37;2.50;;;0.00;;
62479;SDS011;48526;48.846;2.322;2023-04-01T02:35:04;2.00;;;1.00;;
62479;SDS011;48526;48.846;2.322;2023-04-01T02:37:37;0.00;;;0.00;;
62479;SDS011;48526;48.846;2.322;2023-04-01T02:40:07;0.00;;;0.00;;
62479;SDS011;48526;48.846;2.322;2023-04-01T02:42:33;0.25;;;0.25;;
62479;SDS011;48526;48.846;2.322;2023-04-01T02:44:59;0.00;;;0.00;;
62479;SDS011;48526;48.846;2.322;2023-04-01T02:47:24;2.00;;;0.00;;
62479;SDS011;48526;48.846;2.322;2023-04-01T02:49:50;0.75;;;0.75;;
62479;SDS011;48526;48.846;2.322;2023-04-01T02:52:15;2.50;;;0.50;;
62479;SDS011;48526;48.846;2.322;2023-04-01T02:54:40;2.00;;;0.00;;
62479;SDS011;48526;48.846;2.322;2023-04-01T02:57:06;0.00;;;0.00;;
62479;SDS011;48526;48.846;2.322;2023-04-01T02:59:31;0.00;;;0.00;;
62479;SDS011;48526;48.846;2.322;2023-04-01T03:01:56;0.00;;;0.00;;
62479;SDS011;48526;48.846;2.322;2023-04-01T03:04:22;1.00;;;1.00;;
62479;SDS011;48526;48.846;2.322;2023-04-01T03:06:47;0.00;;;0.00;;
62479;SDS011;48526;48.846;2.322;2023-04-01T03:09:12;0.00;;;0.00;;
62479;SDS011;48526;48.846;2.322;2023-04-01T03:11:39;1.00;;;0.00;;
62479;SDS011;48526;48.846;2.322;2023-04-01T03:14:05;0.00;;;0.00;;
62479;SDS011;48526;48.846;2.322;2023-04-01T03:16:31;0.00;;;0.00;;
62479;SDS011;48526;48.846;2.322;2023-04-01T03:18:57;2.00;;;0.00;;
62479;SDS011;48526;48.846;2.322;2023-04-01T03:21:24;2.00;;;0.50;;
62479;SDS011;48526;48.846;2.322;2023-04-01T03:23:50;0.00;;;0.00;;
62479;SDS011;48526;48.846;2.322;2023-04-01T03:26:16;2.50;;;1.75;;
62479;SDS011;48526;48.846;2.322;2023-04-01T03:28:41;1.00;;;0.00;;
62479;SDS011;48526;48.846;2.322;2023-04-01T03:31:07;0.25;;;0.25;;
62479;SDS011;48526;48.846;2.322;2023-04-01T03:33:32;3.75;;;2.00;;
62479;SDS011;48526;48.846;2.322;2023-04-01T03:35:58;1.00;;;0.00;;
62479;SDS011;48526;48.846;2.322;2023-04-01T03:38:23;1.00;;;1.00;;
62479;SDS011;48526;48.846;2.322;2023-04-01T03:40:49;0.25;;;0.00;;
62479;SDS011;48526;48.846;2.322;2023-04-01T03:43:14;1.00;;;1.00;;
62479;SDS011;48526;48.846;2.322;2023-04-01T03:45:48;2.75;;;0.00;;
62479;SDS011;48526;48.846;2.322;2023-04-01T03:48:15;0.00;;;0.00;;
62479;SDS011;48526;48.846;2.322;2023-04-01T03:50:40;0.75;;;0.75;;
62479;SDS011;48526;48.846;2.322;2023-04-01T03:53:06;0.00;;;0.00;;
62479;SDS011;48526;48.846;2.322;2023-04-01T03:55:31;3.25;;;0.75;;
62479;SDS011;48526;48.846;2.322;2023-04-01T03:57:56;0.00;;;0.00;;
62479;SDS011;48526;48.846;2.322;2023-04-01T04:00:22;5.25;;;2.25;;
62479;SDS011;48526;48.846;2.322;2023-04-01T04:02:47;0.00;;;0.00;;
62479;SDS011;48526;48.846;2.322;2023-04-01T04:05:13;2.25;;;1.00;;
62479;SDS011;48526;48.846;2.322;2023-04-01T04:07:38;0.00;;;0.00;;
62479;SDS011;48526;48.846;2.322;2023-04-01T04:10:04;1.00;;;0.00;;
62479;SDS011;48526;48.846;2.322;2023-04-01T04:12:30;1.25;;;1.00;;
62479;SDS011;48526;48.846;2.322;2023-04-01T04:14:56;0.00;;;0.00;;
62479;SDS011;48526;48.846;2.322;2023-04-01T04:17:21;2.50;;;0.00;;
62479;SDS011;48526;48.846;2.322;2023-04-01T04:19:46;0.00;;;0.00;;
62479;SDS011;48526;48.846;2.322;2023-04-01T04:22:12;0.00;;;0.00;;
62479;SDS011;48526;48.846;2.322;2023-04-01T04:24:37;0.00;;;0.00;;
62479;SDS011;48526;48.846;2.322;2023-04-01T04:27:03;2.75;;;0.50;;
62479;SDS011;48526;48.846;2.322;2023-04-01T04:29:28;0.75;;;0.75;;
62479;SDS011;48526;48.846;2.322;2023-04-01T04:31:54;1.75;;;0.00;;
62479;SDS011;48526;48.846;2.322;2023-04-01T04:34:20;0.25;;;0.25;;
62479;SDS011;48526;48.846;2.322;2023-04-01T04:36:47;1.00;;;0.00;;
62479;SDS011;48526;48.846;2.322;2023-04-01T04:39:12;2.75;;;1.00;;
62479;SDS011;48526;48.846;2.322;2023-04-01T04:41:38;1.00;;;0.00;;
62479;SDS011;48526;48.846;2.322;2023-04-01T04:44:03;5.00;;;2.25;;
62479;SDS011;48526;48.846;2.322;2023-04-01T04:46:29;0.25;;;0.25;;
62479;SDS011;48526;48.846;2.322;2023-04-01T04:48:55;1.00;;;0.00;;
62479;SDS011;48526;48.846;2.322;2023-04-01T04:51:21;4.25;;;1.00;;
62479;SDS011;48526;48.846;2.322;2023-04-01T04:53:47;1.00;;;0.00;;
62479;SDS011;48526;48.846;2.322;2023-04-01T04:56:16;0.75;;;0.00;;
62479;SDS011;48526;48.846;2.322;2023-04-01T04:58:43;0.00;;;0.00;;
62479;SDS011;48526;48.846;2.322;2023-04-01T05:01:10;0.00;;;0.00;;
62479;SDS011;48526;48.846;2.322;2023-04-01T05:03:36;0.75;;;0.00;;
62479;SDS011;48526;48.846;2.322;2023-04-01T05:06:02;0.75;;;0.00;;
62479;SDS011;48526;48.846;2.322;2023-04-01T05:08:28;1.75;;;0.75;;
62479;SDS011;48526;48.846;2.322;2023-04-01T05:10:54;1.75;;;0.75;;
62479;SDS011;48526;48.846;2.322;2023-04-01T05:13:19;1.00;;;0.00;;
62479;SDS011;48526;48.846;2.322;2023-04-01T05:15:45;0.00;;;0.00;;
62479;SDS011;48526;48.846;2.322;2023-04-01T05:18:10;0.00;;;0.00;;
62479;SDS011;48526;48.846;2.322;2023-04-01T05:20:35;1.75;;;1.00;;
62479;SDS011;48526;48.846;2.322;2023-04-01T05:23:01;0.00;;;0.00;;
62479;SDS011;48526;48.846;2.322;2023-04-01T05:25:26;1.25;;;0.25;;
62479;SDS011;48526;48.846;2.322;2023-04-01T05:27:52;1.25;;;0.25;;
62479;SDS011;48526;48.846;2.322;2023-04-01T05:30:17;0.00;;;0.00;;
62479;SDS011;48526;48.846;2.322;2023-04-01T05:32:43;0.00;;;0.00;;
62479;SDS011;48526;48.846;2.322;2023-04-01T05:35:09;1.00;;;0.50;;
62479;SDS011;48526;48.846;2.322;2023-04-01T05:37:35;0.00;;;0.00;;
62479;SDS011;48526;48.846;2.322;2023-04-01T05:40:00;0.00;;;0.00;;
62479;SDS011;48526;48.846;2.322;2023-04-01T05:42:26;0.00;;;0.00;;
62479;SDS011;48526;48.846;2.322;2023-04-01T05:44:52;0.00;;;0.00;;
62479;SDS011;48526;48.846;2.322;2023-04-01T05:47:17;0.25;;;0.25;;
62479;SDS011;48526;48.846;2.322;2023-04-01T05:49:43;0.50;;;0.00;;
62479;SDS011;48526;48.846;2.322;2023-04-01T05:52:08;1.00;;;1.00;;
62479;SDS011;48526;48.846;2.322;2023-04-01T05:54:34;1.25;;;1.25;;
62479;SDS011;48526;48.846;2.322;2023-04-01T05:56:59;2.75;;;2.00;;
62479;SDS011;48526;48.846;2.322;2023-04-01T05:59:25;0.75;;;0.75;;
62479;SDS011;48526;48.846;2.322;2023-04-01T06:01:50;0.00;;;0.00;;
62479;SDS011;48526;48.846;2.322;2023-04-01T06:04:17;0.75;;;0.00;;
62479;SDS011;48526;48.846;2.322;2023-04-01T06:06:43;0.25;;;0.00;;
62479;SDS011;48526;48.846;2.322;2023-04-01T06:09:26;0.00;;;0.00;;
62479;SDS011;48526;48.846;2.322;2023-04-01T06:12:07;1.00;;;0.00;;
62479;SDS011;48526;48.846;2.322;2023-04-01T06:22:49;0.50;;;0.50;;
62479;SDS011;48526;48.846;2.322;2023-04-01T06:28:30;0.00;;;0.00;;
62479;SDS011;48526;48.846;2.322;2023-04-01T06:31:38;0.00;;;0.00;;
62479;SDS011;48526;48.846;2.322;2023-04-01T06:34:17;1.00;;;0.75;;
62479;SDS011;48526;48.846;2.322;2023-04-01T06:36:56;0.00;;;0.00;;
62479;SDS011;48526;48.846;2.322;2023-04-01T06:50:11;0.00;;;0.00;;
62479;SDS011;48526;48.846;2.322;2023-04-01T06:57:51;0.00;;;0.00;;
62479;SDS011;48526;48.846;2.322;2023-04-01T07:02:52;1.00;;;0.00;;
62479;SDS011;48526;48.846;2.322;2023-04-01T07:05:20;2.00;;;0.00;;
62479;SDS011;48526;48.846;2.322;2023-04-01T07:07:47;1.00;;;0.00;;
62479;SDS011;48526;48.846;2.322;2023-04-01T07:10:16;0.00;;;0.00;;
62479;SDS011;48526;48.846;2.322;2023-04-01T07:12:52;0.00;;;0.00;;
62479;SDS011;48526;48.846;2.322;2023-04-01T07:15:24;2.50;;;1.00;;
62479;SDS011;48526;48.846;2.322;2023-04-01T07:18:02;0.00;;;0.00;;
62479;SDS011;48526;48.846;2.322;2023-04-01T07:20:30;0.00;;;0.00;;
62479;SDS011;48526;48.846;2.322;2023-04-01T07:22:58;1.00;;;0.00;;
62479;SDS011;48526;48.846;2.322;2023-04-01T07:25:26;0.75;;;0.75;;
62479;SDS011;48526;48.846;2.322;2023-04-01T07:28:01;2.00;;;0.00;;
62479;SDS011;48526;48.846;2.322;2023-04-01T07:36:24;0.00;;;0.00;;
62479;SDS011;48526;48.846;2.322;2023-04-01T07:44:47;1.25;;;0.25;;
62479;SDS011;48526;48.846;2.322;2023-04-01T07:55:10;7.25;;;1.00;;
62479;SDS011;48526;48.846;2.322;2023-04-01T08:00:19;1.00;;;0.00;;
62479;SDS011;48526;48.846;2.322;2023-04-01T08:22:09;0.00;;;0.00;;
62479;SDS011;48526;48.846;2.322;2023-04-01T08:24:41;0.75;;;0.00;;
62479;SDS011;48526;48.846;2.322;2023-04-01T08:27:16;2.00;;;0.00;;
62479;SDS011;48526;48.846;2.322;2023-04-01T08:29:50;1.25;;;0.00;;
62479;SDS011;48526;48.846;2.322;2023-04-01T08:32:32;0.00;;;0.00;;
62479;SDS011;48526;48.846;2.322;2023-04-01T08:35:07;0.00;;;0.00;;
62479;SDS011;48526;48.846;2.322;2023-04-01T08:37:35;0.00;;;0.00;;
62479;SDS011;48526;48.846;2.322;2023-04-01T08:46:04;1.25;;;1.25;;
62479;SDS011;48526;48.846;2.322;2023-04-01T08:51:26;2.00;;;0.00;;
62479;SDS011;48526;48.846;2.322;2023-04-01T08:54:19;0.00;;;0.00;;
62479;SDS011;48526;48.846;2.322;2023-04-01T08:59:30;2.00;;;1.00;;
62479;SDS011;48526;48.846;2.322;2023-04-01T09:05:07;0.00;;;0.00;;
62479;SDS011;48526;48.846;2.322;2023-04-01T09:19:21;1.00;;;1.00;;
62479;SDS011;48526;48.846;2.322;2023-04-01T09:25:01;1.50;;;1.50;;
62479;SDS011;48526;48.846;2.322;2023-04-01T09:27:44;0.75;;;0.75;;
62479;SDS011;48526;48.846;2.322;2023-04-01T09:38:31;1.50;;;0.75;;
62479;SDS011;48526;48.846;2.322;2023-04-01T10:12:08;0.00;;;0.00;;
62479;SDS011;48526;48.846;2.322;2023-04-01T10:22:52;1.00;;;1.00;;
62479;SDS011;48526;48.846;2.322;2023-04-01T10:34:12;0.00;;;0.00;;
62479;SDS011;48526;48.846;2.322;2023-04-01T10:42:06;2.00;;;1.00;;
62479;SDS011;48526;48.846;2.322;2023-04-01T10:53:32;1.00;;;1.00;;
62479;SDS011;48526;48.846;2.322;2023-04-01T11:02:35;1.00;;;1.00;;
62479;SDS011;48526;48.846;2.322;2023-04-01T11:28:23;0.00;;;0.00;;
62479;SDS011;48526;48.846;2.322;2023-04-01T11:34:13;3.50;;;3.50;;
62479;SDS011;48526;48.846;2.322;2023-04-01T11:37:03;2.00;;;2.00;;
62479;SDS011;48526;48.846;2.322;2023-04-01T11:39:43;5.00;;;3.50;;
62479;SDS011;48526;48.846;2.322;2023-04-01T11:42:32;2.25;;;1.00;;
62479;SDS011;48526;48.846;2.322;2023-04-01T11:48:40;1.25;;;1.25;;
62479;SDS011;48526;48.846;2.322;2023-04-01T11:53:43;3.00;;;3.00;;
62479;SDS011;48526;48.846;2.322;2023-04-01T12:06:55;2.50;;;1.50;;
62479;SDS011;48526;48.846;2.322;2023-04-01T12:09:44;4.50;;;3.00;;
62479;SDS011;48526;48.846;2.322;2023-04-01T12:15:27;3.25;;;2.00;;
62479;SDS011;48526;48.846;2.322;2023-04-01T12:23:59;0.50;;;0.00;;
62479;SDS011;48526;48.846;2.322;2023-04-01T12:29:12;1.00;;;0.00;;
62479;SDS011;48526;48.846;2.322;2023-04-01T12:44:41;0.00;;;0.00;;
62479;SDS011;48526;48.846;2.322;2023-04-01T12:52:48;0.00;;;0.00;;
62479;SDS011;48526;48.846;2.322;2023-04-01T13:16:16;1.00;;;1.00;;
62479;SDS011;48526;48.846;2.322;2023-04-01T13:19:13;1.00;;;0.00;;
62479;SDS011;48526;48.846;2.322;2023-04-01T13:27:08;5.00;;;1.50;;
62479;SDS011;48526;48.846;2.322;2023-04-01T13:30:03;2.75;;;1.00;;
62479;SDS011;48526;48.846;2.322;2023-04-01T13:43:29;0.00;;;0.00;;
62479;SDS011;48526;48.846;2.322;2023-04-01T13:48:29;0.00;;;0.00;;
62479;SDS011;48526;48.846;2.322;2023-04-01T13:51:04;0.00;;;0.00;;
62479;SDS011;48526;48.846;2.322;2023-04-01T13:53:45;0.00;;;0.00;;
62479;SDS011;48526;48.846;2.322;2023-04-01T13:56:34;1.00;;;1.00;;
62479;SDS011;48526;48.846;2.322;2023-04-01T14:01:54;1.00;;;0.00;;
62479;SDS011;48526;48.846;2.322;2023-04-01T14:04:35;0.00;;;0.00;;
62479;SDS011;48526;48.846;2.322;2023-04-01T14:07:16;2.50;;;0.25;;
62479;SDS011;48526;48.846;2.322;2023-04-01T14:21:11;1.00;;;1.00;;
62479;SDS011;48526;48.846;2.322;2023-04-01T14:23:47;0.00;;;0.00;;
62479;SDS011;48526;48.846;2.322;2023-04-01T14:26:29;0.00;;;0.00;;
62479;SDS011;48526;48.846;2.322;2023-04-01T14:34:25;0.00;;;0.00;;
62479;SDS011;48526;48.846;2.322;2023-04-01T14:43:01;0.00;;;0.00;;
62479;SDS011;48526;48.846;2.322;2023-04-01T14:50:52;5.00;;;3.00;;
62479;SDS011;48526;48.846;2.322;2023-04-01T14:55:50;0.00;;;0.00;;
62479;SDS011;48526;48.846;2.322;2023-04-01T14:58:17;1.00;;;1.00;;
62479;SDS011;48526;48.846;2.322;2023-04-01T15:00:47;0.75;;;0.00;;
62479;SDS011;48526;48.846;2.322;2023-04-01T15:08:44;2.00;;;0.75;;
62479;SDS011;48526;48.846;2.322;2023-04-01T15:11:36;0.00;;;0.00;;
62479;SDS011;48526;48.846;2.322;2023-04-01T15:14:31;0.00;;;0.00;;
62479;SDS011;48526;48.846;2.322;2023-04-01T15:17:22;0.00;;;0.00;;
62479;SDS011;48526;48.846;2.322;2023-04-01T15:20:19;0.00;;;0.00;;
62479;SDS011;48526;48.846;2.322;2023-04-01T15:25:54;0.00;;;0.00;;
62479;SDS011;48526;48.846;2.322;2023-04-01T15:31:02;0.00;;;0.00;;
62479;SDS011;48526;48.846;2.322;2023-04-01T15:36:54;0.75;;;0.75;;
62479;SDS011;48526;48.846;2.322;2023-04-01T15:45:23;1.25;;;1.00;;
62479;SDS011;48526;48.846;2.322;2023-04-01T15:50:51;1.00;;;1.00;;
62479;SDS011;48526;48.846;2.322;2023-04-01T15:53:40;3.00;;;2.00;;
62479;SDS011;48526;48.846;2.322;2023-04-01T16:01:57;1.00;;;1.00;;
62479;SDS011;48526;48.846;2.322;2023-04-01T16:04:36;0.25;;;0.25;;
62479;SDS011;48526;48.846;2.322;2023-04-01T16:07:11;0.50;;;0.00;;
62479;SDS011;48526;48.846;2.322;2023-04-01T16:09:56;1.00;;;1.00;;
62479;SDS011;48526;48.846;2.322;2023-04-01T16:12:36;0.50;;;0.50;;
62479;SDS011;48526;48.846;2.322;2023-04-01T16:15:21;0.00;;;0.00;;
62479;SDS011;48526;48.846;2.322;2023-04-01T16:18:40;0.00;;;0.00;;
62479;SDS011;48526;48.846;2.322;2023-04-01T16:20:55;2.25;;;0.25;;
62479;SDS011;48526;48.846;2.322;2023-04-01T16:23:26;1.00;;;0.25;;
62479;SDS011;48526;48.846;2.322;2023-04-01T16:26:05;1.00;;;1.00;;
62479;SDS011;48526;48.846;2.322;2023-04-01T16:28:55;0.00;;;0.00;;
62479;SDS011;48526;48.846;2.322;2023-04-01T16:31:31;0.00;;;0.00;;
62479;SDS011;48526;48.846;2.322;2023-04-01T16:34:20;0.50;;;0.50;;
62479;SDS011;48526;48.846;2.322;2023-04-01T16:36:54;1.50;;;1.00;;
62479;SDS011;48526;48.846;2.322;2023-04-01T16:42:40;1.00;;;1.00;;
62479;SDS011;48526;48.846;2.322;2023-04-01T16:45:17;2.25;;;2.25;;
62479;SDS011;48526;48.846;2.322;2023-04-01T16:47:49;0.00;;;0.00;;
62479;SDS011;48526;48.846;2.322;2023-04-01T16:50:21;0.00;;;0.00;;
62479;SDS011;48526;48.846;2.322;2023-04-01T16:55:48;3.00;;;1.00;;
62479;SDS011;48526;48.846;2.322;2023-04-01T16:58:35;2.50;;;2.50;;
62479;SDS011;48526;48.846;2.322;2023-04-01T17:01:13;0.00;;;0.00;;
62479;SDS011;48526;48.846;2.322;2023-04-01T17:11:21;0.00;;;0.00;;
62479;SDS011;48526;48.846;2.322;2023-04-01T17:14:08;1.00;;;1.00;;
62479;SDS011;48526;48.846;2.322;2023-04-01T17:19:33;3.00;;;1.00;;
62479;SDS011;48526;48.846;2.322;2023-04-01T17:30:35;5.00;;;3.00;;
62479;SDS011;48526;48.846;2.322;2023-04-01T17:34:17;2.00;;;2.00;;
62479;SDS011;48526;48.846;2.322;2023-04-01T17:44:05;2.75;;;2.00;;
62479;SDS011;48526;48.846;2.322;2023-04-01T17:47:29;4.00;;;3.50;;
62479;SDS011;48526;48.846;2.322;2023-04-01T17:50:09;3.00;;;3.00;;
62479;SDS011;48526;48.846;2.322;2023-04-01T17:55:48;2.75;;;2.00;;
62479;SDS011;48526;48.846;2.322;2023-04-01T17:58:19;2.50;;;2.00;;
62479;SDS011;48526;48.846;2.322;2023-04-01T18:00:59;2.75;;;2.50;;
62479;SDS011;48526;48.846;2.322;2023-04-01T18:06:39;3.25;;;2.25;;
62479;SDS011;48526;48.846;2.322;2023-04-01T18:17:23;2.00;;;2.00;;
62479;SDS011;48526;48.846;2.322;2023-04-01T18:22:29;6.50;;;4.00;;
62479;SDS011;48526;48.846;2.322;2023-04-01T18:25:17;3.50;;;3.00;;
62479;SDS011;48526;48.846;2.322;2023-04-01T18:27:47;6.00;;;5.25;;
62479;SDS011;48526;48.846;2.322;2023-04-01T18:30:25;4.50;;;4.50;;
62479;SDS011;48526;48.846;2.322;2023-04-01T18:38:36;7.00;;;2.50;;
62479;SDS011;48526;48.846;2.322;2023-04-01T18:41:15;3.00;;;2.25;;
62479;SDS011;48526;48.846;2.322;2023-04-01T18:44:03;3.75;;;3.75;;
62479;SDS011;48526;48.846;2.322;2023-04-01T19:00:19;4.50;;;4.25;;
62479;SDS011;48526;48.846;2.322;2023-04-01T19:02:51;9.50;;;5.25;;
62479;SDS011;48526;48.846;2.322;2023-04-01T19:08:16;8.25;;;6.75;;
62479;SDS011;48526;48.846;2.322;2023-04-01T19:10:48;4.75;;;3.75;;
62479;SDS011;48526;48.846;2.322;2023-04-01T19:19:12;8.00;;;5.00;;
62479;SDS011;48526;48.846;2.322;2023-04-01T19:27:01;4.50;;;4.00;;
62479;SDS011;48526;48.846;2.322;2023-04-01T19:32:22;4.00;;;3.00;;
62479;SDS011;48526;48.846;2.322;2023-04-01T19:37:51;5.00;;;3.00;;
62479;SDS011;48526;48.846;2.322;2023-04-01T19:48:43;8.00;;;5.00;;
62479;SDS011;48526;48.846;2.322;2023-04-01T19:51:34;7.50;;;4.25;;
62479;SDS011;48526;48.846;2.322;2023-04-01T19:54:13;7.50;;;4.00;;
62479;SDS011;48526;48.846;2.322;2023-04-01T19:57:21;7.00;;;4.75;;
62479;SDS011;48526;48.846;2.322;2023-04-01T20:05:38;3.50;;;3.25;;
62479;SDS011;48526;48.846;2.322;2023-04-01T20:08:13;2.00;;;2.00;;
62479;SDS011;48526;48.846;2.322;2023-04-01T20:16:21;9.75;;;7.50;;
62479;SDS011;48526;48.846;2.322;2023-04-01T20:18:49;9.50;;;8.50;;
62479;SDS011;48526;48.846;2.322;2023-04-01T20:21:19;9.50;;;8.00;;
62479;SDS011;48526;48.846;2.322;2023-04-01T20:23:52;5.00;;;5.00;;
62479;SDS011;48526;48.846;2.322;2023-04-01T20:26:25;7.50;;;7.00;;
62479;SDS011;48526;48.846;2.322;2023-04-01T20:31:49;9.50;;;7.50;;
62479;SDS011;48526;48.846;2.322;2023-04-01T20:34:20;6.50;;;4.00;;
62479;SDS011;48526;48.846;2.322;2023-04-01T20:39:46;12.75;;;8.25;;
62479;SDS011;48526;48.846;2.322;2023-04-01T20:51:29;6.50;;;6.50;;
62479;SDS011;48526;48.846;2.322;2023-04-01T21:05:00;7.00;;;6.50;;
62479;SDS011;48526;48.846;2.322;2023-04-01T21:18:47;5.75;;;4.00;;
62479;SDS011;48526;48.846;2.322;2023-04-01T21:29:53;7.00;;;7.00;;
62479;SDS011;48526;48.846;2.322;2023-04-01T21:32:30;3.25;;;3.25;;
62479;SDS011;48526;48.846;2.322;2023-04-01T21:37:58;9.25;;;6.25;;
62479;SDS011;48526;48.846;2.322;2023-04-01T21:59:54;8.00;;;8.00;;
62479;SDS011;48526;48.846;2.322;2023-04-01T22:05:30;8.00;;;4.00;;
62479;SDS011;48526;48.846;2.322;2023-04-01T22:13:46;9.25;;;8.00;;
62479;SDS011;48526;48.846;2.322;2023-04-01T22:19:03;9.00;;;8.50;;
62479;SDS011;48526;48.846;2.322;2023-04-01T22:21:37;10.50;;;5.25;;
62479;SDS011;48526;48.846;2.322;2023-04-01T22:27:07;6.25;;;3.00;;
62479;SDS011;48526;48.846;2.322;2023-04-01T22:29:45;11.00;;;8.50;;
62479;SDS011;48526;48.846;2.322;2023-04-01T22:34:57;8.25;;;7.00;;
62479;SDS011;48526;48.846;2.322;2023-04-01T22:42:43;7.25;;;5.50;;
62479;SDS011;48526;48.846;2.322;2023-04-01T22:50:22;6.00;;;3.75;;
62479;SDS011;48526;48.846;2.322;2023-04-01T22:52:53;7.50;;;6.75;;
62479;SDS011;48526;48.846;2.322;2023-04-01T22:55:41;6.50;;;4.75;;
62479;SDS011;48526;48.846;2.322;2023-04-01T22:58:12;7.00;;;7.00;;
62479;SDS011;48526;48.846;2.322;2023-04-01T23:00:48;10.50;;;7.50;;
62479;SDS011;48526;48.846;2.322;2023-04-01T23:03:17;7.50;;;5.25;;
62479;SDS011;48526;48.846;2.322;2023-04-01T23:05:50;4.25;;;4.25;;
62479;SDS011;48526;48.846;2.322;2023-04-01T23:11:18;9.50;;;7.50;;
62479;SDS011;48526;48.846;2.322;2023-04-01T23:13:52;8.50;;;7.50;;
62479;SDS011;48526;48.846;2.322;2023-04-01T23:16:20;7.00;;;3.75;;
62479;SDS011;48526;48.846;2.322;2023-04-01T23:21:27;9.50;;;9.00;;
62479;SDS011;48526;48.846;2.322;2023-04-01T23:29:15;7.50;;;4.00;;
62479;SDS011;48526;48.846;2.322;2023-04-01T23:31:42;5.25;;;5.25;;
62479;SDS011;48526;48.846;2.322;2023-04-01T23:39:39;11.00;;;7.00;;
62479;SDS011;48526;48.846;2.322;2023-04-01T23:42:07;11.50;;;6.50;;
62479;SDS011;48526;48.846;2.322;2023-04-01T23:44:40;6.25;;;3.75;;
62479;SDS011;48526;48.846;2.322;2023-04-01T23:47:06;6.50;;;5.75;;
62479;SDS011;48526;48.846;2.322;2023-04-01T23:49:37;6.75;;;6.75;;
62479;SDS011;48526;48.846;2.322;2023-04-01T23:52:11;6.25;;;5.75;;
62479;SDS011;48526;48.846;2.322;2023-04-01T23:54:58;5.50;;;5.50;;
62479;SDS011;48526;48.846;2.322;2023-04-01T23:57:30;6.75;;;6.75;;
